Time;durP1;ratioP1;P1;durP2;ratioP2;P2;SDS_P1;SDS_P2;PMS_P1;PMS_P2;Temp;Humidity;BMP_temperature;BMP_pressure;BME280_temperature;BME280_humidity;BME280_pressure;Samples;Min_cycle;Max_cycle;Signal;HPM_P1;HPM_P2
2021/09/09 00:03:29;;;;;;;18.50;12.00;;;;;;;12.74;73.37;99104.47;232873;1204;24094;-71
2021/09/09 00:08:33;;;;;;;16.80;12.80;;;;;;;12.69;73.50;99102.73;232592;1205;24081;-74
2021/09/09 00:13:38;;;;;;;19.00;13.00;;;;;;;12.63;73.61;99099.44;232707;1207;24214;-74
2021/09/09 00:18:44;;;;;;;15.10;10.80;;;;;;;12.58;73.72;99098.88;232862;1205;22966;-71
2021/09/09 00:23:49;;;;;;;18.30;12.10;;;;;;;12.53;73.78;99096.65;232520;1204;23979;-74
2021/09/09 00:28:52;;;;;;;16.40;12.20;;;;;;;12.48;73.99;99096.39;232669;1205;24090;-72
2021/09/09 00:34:00;;;;;;;17.10;11.70;;;;;;;12.43;74.01;99093.31;232650;1204;23978;-72
2021/09/09 00:39:10;;;;;;;18.10;10.90;;;;;;;12.35;73.91;99094.98;232792;1204;22446;-71
2021/09/09 00:44:27;;;;;;;13.30;10.10;;;;;;;12.30;74.21;99098.07;232558;1204;22524;-73
2021/09/09 00:49:31;;;;;;;16.70;12.40;;;;;;;12.26;74.31;99093.12;232707;1204;22543;-72
2021/09/09 00:54:34;;;;;;;16.60;12.20;;;;;;;12.22;74.53;99092.70;232712;1204;22447;-74
2021/09/09 00:59:37;;;;;;;16.90;11.30;;;;;;;12.18;74.64;99093.35;232564;1204;25335;-74
2021/09/09 01:04:39;;;;;;;15.40;10.90;;;;;;;12.12;74.49;99090.11;232592;1205;25215;-73
2021/09/09 01:09:42;;;;;;;17.40;12.10;;;;;;;12.07;74.57;99091.35;232754;1205;24065;-73
2021/09/09 01:14:45;;;;;;;15.80;12.20;;;;;;;12.02;74.83;99089.55;232660;1204;24290;-71
2021/09/09 01:19:47;;;;;;;15.80;11.30;;;;;;;11.92;74.87;99093.41;232477;1205;24061;-73
2021/09/09 01:24:51;;;;;;;13.90;10.30;;;;;;;11.86;75.06;99092.41;232871;1199;22517;-72
2021/09/09 01:29:57;;;;;;;20.90;11.30;;;;;;;11.81;75.17;99094.09;232580;1204;24060;-73
2021/09/09 01:35:00;;;;;;;15.50;11.70;;;;;;;11.74;75.29;99090.10;232770;1204;24109;-73
2021/09/09 01:40:03;;;;;;;19.10;11.50;;;;;;;11.67;75.37;99089.11;232597;1204;24116;-72
2021/09/09 01:45:08;;;;;;;15.50;10.60;;;;;;;11.59;75.37;99089.84;232891;1204;22470;-72
2021/09/09 01:50:11;;;;;;;14.40;11.60;;;;;;;11.54;75.57;99090.19;232642;1213;25222;-72
2021/09/09 01:55:13;;;;;;;14.50;11.30;;;;;;;11.49;75.87;99093.19;232568;1204;25337;-73
2021/09/09 02:00:16;;;;;;;15.80;11.60;;;;;;;11.43;75.78;99091.02;232864;1205;24077;-71
2021/09/09 02:05:27;;;;;;;17.80;11.00;;;;;;;11.37;75.67;99095.64;232594;1206;25218;-74
2021/09/09 02:10:40;;;;;;;18.00;12.30;;;;;;;11.33;75.96;99097.66;232615;1205;22527;-73
2021/09/09 02:15:43;;;;;;;17.80;11.10;;;;;;;11.27;76.07;99100.56;232599;1205;24285;-74
2021/09/09 02:20:46;;;;;;;15.60;11.10;;;;;;;11.17;75.93;99104.11;232792;1205;22471;-71
2021/09/09 02:25:56;;;;;;;15.20;10.90;;;;;;;11.09;76.36;99100.16;232606;1205;24072;-73
2021/09/09 02:31:12;;;;;;;20.10;13.00;;;;;;;11.05;76.47;99095.17;232652;1206;24070;-71
2021/09/09 02:36:15;;;;;;;16.00;12.50;;;;;;;11.00;76.68;99094.08;232515;1206;24176;-71
2021/09/09 02:41:17;;;;;;;18.10;12.40;;;;;;;10.95;76.87;99094.34;232738;1204;22447;-73
2021/09/09 02:46:27;;;;;;;19.60;11.50;;;;;;;10.89;76.85;99092.80;232608;1208;25204;-71
2021/09/09 02:51:29;;;;;;;17.20;13.20;;;;;;;10.86;77.16;99096.27;232481;1208;25293;-73
2021/09/09 02:56:33;;;;;;;18.90;13.00;;;;;;;10.85;77.41;99090.68;232655;1205;24070;-74
2021/09/09 03:01:49;;;;;;;17.10;12.50;;;;;;;10.84;77.59;99088.88;233059;1208;22572;-71
2021/09/09 03:06:52;;;;;;;23.40;13.50;;;;;;;10.78;77.39;99084.05;233002;1209;24208;-73
2021/09/09 03:11:55;;;;;;;18.20;13.30;;;;;;;10.76;77.68;99084.70;233000;1205;24656;-73
2021/09/09 03:16:58;;;;;;;17.20;12.00;;;;;;;10.77;77.89;99081.55;232822;1198;24150;-72
2021/09/09 03:22:01;;;;;;;15.80;12.10;;;;;;;10.77;77.83;99073.81;232964;1212;24078;-74
2021/09/09 03:27:04;;;;;;;19.50;13.20;;;;;;;10.77;77.77;99073.92;232907;1205;24099;-73
2021/09/09 03:32:19;;;;;;;18.60;14.40;;;;;;;10.74;77.82;99079.25;232792;1209;22543;-73
2021/09/09 03:37:29;;;;;;;21.80;14.00;;;;;;;10.67;77.70;99075.41;232987;1208;24080;-73
2021/09/09 03:42:31;;;;;;;20.00;13.80;;;;;;;10.61;78.16;99083.83;232976;1209;24263;-72
2021/09/09 03:47:34;;;;;;;22.10;13.90;;;;;;;10.58;78.00;99079.02;232550;1205;22473;-74
2021/09/09 03:52:37;;;;;;;19.00;14.30;;;;;;;10.56;78.23;99078.45;232519;1206;24019;-73
2021/09/09 03:57:49;;;;;;;21.80;15.00;;;;;;;10.50;78.35;99073.09;232597;1206;22492;-73
2021/09/09 04:03:06;;;;;;;19.80;13.60;;;;;;;10.49;78.57;99073.79;232668;1211;22529;-72
2021/09/09 04:08:11;;;;;;;18.30;13.80;;;;;;;10.45;78.47;99069.60;232649;1207;24107;-74
2021/09/09 04:13:14;;;;;;;19.70;13.40;;;;;;;10.41;78.46;99070.80;232603;1198;24300;-75
2021/09/09 04:18:18;;;;;;;19.40;13.70;;;;;;;10.42;78.82;99068.87;232603;1206;25140;-73
2021/09/09 04:23:21;;;;;;;22.10;13.50;;;;;;;10.41;78.82;99063.09;232953;1209;22490;-73
2021/09/09 04:28:25;;;;;;;17.20;13.40;;;;;;;10.36;78.59;99067.04;232627;1205;24059;-74
2021/09/09 04:33:27;;;;;;;20.40;14.90;;;;;;;10.34;78.57;99068.90;232922;1206;22446;-72
2021/09/09 04:38:30;;;;;;;18.50;15.00;;;;;;;10.33;78.86;99067.98;232969;1205;24105;-71
2021/09/09 04:43:34;;;;;;;27.20;14.10;;;;;;;10.34;78.92;99066.08;232864;1212;24144;-75
2021/09/09 04:48:37;;;;;;;21.60;13.30;;;;;;;10.37;78.86;99068.75;232771;1206;24095;-74
2021/09/09 04:53:40;;;;;;;19.60;14.30;;;;;;;10.47;79.19;99067.54;232589;1209;24076;-74
2021/09/09 04:58:43;;;;;;;19.40;14.90;;;;;;;10.58;79.30;99070.61;232852;1205;24144;-71
2021/09/09 05:03:53;;;;;;;17.80;13.00;;;;;;;10.69;79.30;99067.13;232822;1209;24943;-72
2021/09/09 05:08:56;;;;;;;;;;;;;;;10.84;79.50;99065.83;232691;1206;24770;-71
2021/09/09 05:13:59;;;;;;;17.80;12.70;;;;;;;10.99;79.38;99059.89;232578;1208;22469;-73
2021/09/09 05:19:12;;;;;;;18.00;12.80;;;;;;;11.10;79.14;99055.75;232716;1206;24086;-71
2021/09/09 05:24:15;;;;;;;16.80;11.50;;;;;;;11.23;79.15;99052.83;232508;1206;24075;-74
2021/09/09 05:29:18;;;;;;;16.10;12.20;;;;;;;11.39;79.30;99041.60;232694;1207;24077;-73
2021/09/09 05:34:20;;;;;;;19.90;14.20;;;;;;;11.59;79.36;99038.77;232870;1205;22582;-74
2021/09/09 05:39:23;;;;;;;13.90;10.80;;;;;;;11.81;79.42;99035.94;232905;1205;25302;-73
2021/09/09 05:44:25;;;;;;;18.90;12.60;;;;;;;12.06;79.52;99034.05;233099;1199;22475;-73
2021/09/09 05:49:28;;;;;;;15.90;11.50;;;;;;;12.33;79.60;99028.23;232933;1206;24077;-72
2021/09/09 05:54:34;;;;;;;16.60;11.80;;;;;;;12.59;79.53;99026.08;233349;1198;24208;-74
2021/09/09 05:59:44;;;;;;;17.50;10.90;;;;;;;12.88;79.37;99023.09;233390;1202;24076;-74
2021/09/09 06:05:05;;;;;;;18.90;12.40;;;;;;;13.17;78.90;99026.27;233630;1205;22446;-74
2021/09/09 06:10:09;;;;;;;14.60;10.90;;;;;;;13.43;78.75;99026.14;233720;1205;25213;-72
2021/09/09 06:15:14;;;;;;;16.00;10.50;;;;;;;13.72;78.43;99025.15;234251;1205;24182;-72
2021/09/09 06:20:43;;;;;;;14.30;11.20;;;;;;;14.07;78.10;99020.33;234398;1198;22461;-74
2021/09/09 06:25:59;;;;;;;;;;;;;;;14.45;77.77;99023.14;234015;1203;25309;-73
2021/09/09 06:31:02;;;;;;;13.40;9.30;;;;;;;14.82;77.38;99023.11;233824;1206;22476;-75
2021/09/09 06:36:05;;;;;;;12.90;8.80;;;;;;;15.20;76.92;99021.42;233374;1203;24929;-75
2021/09/09 06:41:07;;;;;;;9.40;6.60;;;;;;;15.58;76.09;99018.94;233875;1203;22472;-74
2021/09/09 06:46:10;;;;;;;8.70;5.30;;;;;;;15.94;74.62;99020.75;233472;1203;24115;-75
2021/09/09 06:51:23;;;;;;;9.10;5.30;;;;;;;16.32;73.19;99023.83;233247;1205;25017;-74
2021/09/09 06:56:40;;;;;;;11.70;5.10;;;;;;;16.66;71.70;99022.15;235120;1200;22788;-73
2021/09/09 07:01:42;;;;;;;12.40;5.50;;;;;;;17.01;70.49;99023.58;233455;1205;22487;-75
2021/09/09 07:06:45;;;;;;;9.30;5.00;;;;;;;17.32;69.38;99027.66;232916;1207;24230;-73
2021/09/09 07:11:49;;;;;;;9.10;4.90;;;;;;;17.59;68.49;99027.89;232888;1205;22627;-76
2021/09/09 07:16:52;;;;;;;6.40;4.70;;;;;;;17.83;67.49;99028.21;232714;1205;24116;-76
2021/09/09 07:21:55;;;;;;;8.00;4.90;;;;;;;18.08;66.38;99029.66;232853;1205;23986;-76
2021/09/09 07:26:57;;;;;;;5.90;5.00;;;;;;;18.33;65.63;99033.92;233087;1205;25751;-78
2021/09/09 07:32:00;;;;;;;7.50;5.30;;;;;;;18.56;64.23;99032.88;233254;1206;25216;-73
2021/09/09 07:37:03;;;;;;;7.30;4.90;;;;;;;18.75;63.54;99033.83;232887;1205;24078;-75
2021/09/09 07:42:05;;;;;;;7.20;5.00;;;;;;;18.93;62.96;99039.90;233517;1204;25156;-76
2021/09/09 07:47:08;;;;;;;6.60;4.60;;;;;;;19.12;62.30;99041.50;233174;1204;24195;-78
2021/09/09 07:52:15;;;;;;;7.50;4.60;;;;;;;19.29;61.38;99038.25;233433;1206;25229;-74
2021/09/09 07:57:31;;;;;;;7.50;4.60;;;;;;;19.46;60.65;99041.56;232933;1205;24064;-76
2021/09/09 08:02:34;;;;;;;8.10;4.90;;;;;;;19.62;60.14;99041.02;233380;1205;22478;-75
2021/09/09 08:07:41;;;;;;;6.10;4.90;;;;;;;19.80;59.68;99040.02;233107;1205;24201;-75
2021/09/09 08:12:46;;;;;;;6.90;4.80;;;;;;;19.95;59.35;99039.45;233724;1204;24075;-75
2021/09/09 08:17:49;;;;;;;8.30;5.10;;;;;;;20.10;58.77;99042.37;233976;1205;22496;-75
2021/09/09 08:22:51;;;;;;;8.10;5.00;;;;;;;20.24;58.35;99045.63;233527;1204;24080;-74
2021/09/09 08:27:54;;;;;;;7.10;5.60;;;;;;;20.38;58.08;99049.59;233203;1212;24064;-74
2021/09/09 08:32:56;;;;;;;6.80;5.70;;;;;;;20.54;57.58;99048.62;232766;1208;24159;-76
2021/09/09 08:38:00;;;;;;;6.30;5.10;;;;;;;20.69;57.63;99044.97;233268;1204;24047;-75
2021/09/09 08:43:03;;;;;;;5.10;4.00;;;;;;;20.85;56.69;99041.90;233390;1204;24039;-75
2021/09/09 08:48:08;;;;;;;6.60;4.20;;;;;;;21.01;55.97;99042.58;232881;1205;24031;-75
2021/09/09 08:53:13;;;;;;;5.30;3.60;;;;;;;21.15;55.14;99043.46;233548;1204;25147;-75
2021/09/09 08:58:19;;;;;;;4.60;4.10;;;;;;;21.27;54.91;99043.05;233390;1204;22547;-75
2021/09/09 09:03:50;;;;;;;4.60;4.00;;;;;;;21.42;54.61;99038.02;233280;1204;23488;-75
2021/09/09 09:08:59;;;;;;;5.80;3.60;;;;;;;21.56;54.14;99029.72;233331;1204;25185;-75
2021/09/09 09:14:02;;;;;;;4.40;4.00;;;;;;;21.68;53.60;99027.04;232810;1200;22471;-75
2021/09/09 09:19:10;;;;;;;5.70;3.80;;;;;;;21.80;53.00;99022.90;232867;1206;22500;-77
2021/09/09 09:24:18;;;;;;;4.00;3.60;;;;;;;21.91;52.38;99017.98;232990;1205;25050;-75
2021/09/09 09:29:24;;;;;;;5.40;4.00;;;;;;;22.02;51.84;99013.54;233651;1206;22933;-75
2021/09/09 09:34:27;;;;;;;4.10;3.60;;;;;;;22.18;51.62;99011.04;233863;1203;22478;-74
2021/09/09 09:39:29;;;;;;;5.00;3.30;;;;;;;22.33;50.84;99013.91;233939;1205;24037;-76
2021/09/09 09:44:47;;;;;;;4.60;3.60;;;;;;;22.48;48.84;99012.32;233405;1203;22555;-75
2021/09/09 09:49:55;;;;;;;5.10;3.90;;;;;;;22.61;48.72;99011.46;233093;1205;24224;-78
2021/09/09 09:54:59;;;;;;;6.00;3.80;;;;;;;22.68;46.44;99011.83;233823;1204;24083;-75
2021/09/09 10:00:03;;;;;;;4.70;3.70;;;;;;;22.76;45.64;99010.71;233223;1205;22443;-74
2021/09/09 10:05:13;;;;;;;4.80;3.50;;;;;;;22.86;45.01;99005.40;233171;1198;22444;-74
2021/09/09 10:10:16;;;;;;;4.50;3.60;;;;;;;22.97;44.61;99000.59;233179;1198;22441;-74
2021/09/09 10:15:21;;;;;;;6.10;4.00;;;;;;;23.04;44.28;99000.48;233637;1205;24087;-74
2021/09/09 10:20:36;;;;;;;6.30;4.00;;;;;;;23.12;45.05;98998.80;233239;1205;25269;-74
2021/09/09 10:25:46;;;;;;;4.80;4.10;;;;;;;23.27;45.47;98992.79;234168;1205;22481;-75
2021/09/09 10:31:07;;;;;;;6.30;4.20;;;;;;;23.43;45.85;98988.02;233280;1207;22456;-75
2021/09/09 10:36:35;;;;;;;5.60;3.60;;;;;;;23.57;45.81;98983.60;233442;1199;22490;-74
2021/09/09 10:41:39;;;;;;;5.70;4.00;;;;;;;23.70;45.43;98978.38;233522;1206;24074;-75
2021/09/09 10:46:45;;;;;;;5.30;3.90;;;;;;;23.77;44.30;98980.26;236740;1204;25231;-75
2021/09/09 10:52:09;;;;;;;7.00;4.00;;;;;;;23.86;44.64;98980.22;233540;1205;26356;-74
2021/09/09 10:57:14;;;;;;;4.70;4.30;;;;;;;23.97;44.06;98974.82;233093;1205;24023;-76
2021/09/09 11:02:19;;;;;;;4.70;4.00;;;;;;;24.00;43.37;98973.76;232927;1199;22561;-75
2021/09/09 11:07:23;;;;;;;5.60;4.20;;;;;;;24.04;43.62;98972.79;232822;1205;22507;-74
2021/09/09 11:12:26;;;;;;;5.60;4.80;;;;;;;24.09;42.90;98963.54;233137;1204;24027;-75
2021/09/09 11:17:30;;;;;;;6.50;4.60;;;;;;;24.09;43.21;98962.76;232742;1205;22667;-75
2021/09/09 11:22:33;;;;;;;7.70;4.70;;;;;;;24.21;43.57;98963.89;232960;1205;24221;-75
2021/09/09 11:27:36;;;;;;;5.70;4.60;;;;;;;24.35;43.80;98960.34;232768;1205;24087;-75
2021/09/09 11:32:39;;;;;;;5.60;4.10;;;;;;;24.50;43.63;98960.19;233045;1197;25309;-74
2021/09/09 11:37:46;;;;;;;5.00;4.30;;;;;;;24.61;42.92;98956.15;232778;1205;24477;-76
2021/09/09 11:42:48;;;;;;;7.60;5.10;;;;;;;24.60;42.16;98945.02;232733;1205;26302;-74
2021/09/09 11:48:00;;;;;;;5.60;4.90;;;;;;;24.61;42.37;98941.98;233167;1204;24036;-75
2021/09/09 11:53:07;;;;;;;8.20;4.50;;;;;;;24.71;42.66;98937.84;232879;1198;24099;-75
2021/09/09 11:58:36;;;;;;;5.10;4.60;;;;;;;24.75;41.79;98933.34;233127;1205;22450;-75
2021/09/09 12:03:40;;;;;;;5.90;4.50;;;;;;;24.75;40.89;98930.30;232873;1205;24068;-76
2021/09/09 12:08:46;;;;;;;5.00;4.50;;;;;;;24.84;41.72;98921.11;232939;1205;22484;-75
2021/09/09 12:13:49;;;;;;;5.60;4.10;;;;;;;24.97;41.12;98917.59;233047;1204;25349;-75
2021/09/09 12:19:03;;;;;;;5.90;4.70;;;;;;;24.95;39.09;98913.75;232819;1204;22493;-75
2021/09/09 12:24:11;;;;;;;4.90;4.30;;;;;;;24.95;39.85;98908.04;232952;1205;22585;-75
2021/09/09 12:29:16;;;;;;;4.40;4.00;;;;;;;25.05;40.52;98910.52;233030;1204;22529;-75
2021/09/09 12:34:19;;;;;;;4.80;3.50;;;;;;;25.12;40.41;98907.73;233236;1204;25177;-73
2021/09/09 12:39:22;;;;;;;4.70;3.90;;;;;;;25.18;40.33;98903.46;233041;1205;24211;-75
2021/09/09 12:44:41;;;;;;;4.50;4.10;;;;;;;25.22;40.09;98898.08;232923;1211;22469;-75
2021/09/09 12:49:44;;;;;;;4.60;3.90;;;;;;;25.28;40.64;98888.48;232996;1204;24129;-74
2021/09/09 12:54:47;;;;;;;5.30;3.70;;;;;;;25.37;40.09;98887.52;233184;1197;22461;-76
2021/09/09 13:00:05;;;;;;;4.30;3.90;;;;;;;25.41;40.04;98878.63;233044;1205;25228;-75
2021/09/09 13:05:09;;;;;;;5.80;3.90;;;;;;;25.46;39.80;98871.03;233375;1204;22575;-76
2021/09/09 13:10:13;;;;;;;5.70;3.70;;;;;;;25.50;39.66;98866.73;233600;1204;22465;-75
2021/09/09 13:15:16;;;;;;;4.10;3.70;;;;;;;25.55;39.27;98860.56;233413;1204;24054;-74
2021/09/09 13:20:20;;;;;;;4.30;3.60;;;;;;;25.59;39.42;98856.19;233060;1207;22478;-75
2021/09/09 13:25:24;;;;;;;5.40;4.40;;;;;;;25.61;39.20;98855.48;233141;1205;25190;-74
2021/09/09 13:30:26;;;;;;;3.90;3.50;;;;;;;25.63;39.34;98849.14;233328;1204;24213;-74
2021/09/09 13:35:31;;;;;;;3.90;3.60;;;;;;;25.61;39.06;98848.76;233387;1204;24217;-73
2021/09/09 13:40:34;;;;;;;4.30;3.90;;;;;;;25.59;38.47;98843.11;233210;1204;22528;-74
2021/09/09 13:45:36;;;;;;;5.50;3.60;;;;;;;25.57;38.12;98835.33;233097;1204;24110;-74
2021/09/09 13:50:39;;;;;;;4.40;3.80;;;;;;;25.58;38.81;98831.04;233192;1204;22583;-74
2021/09/09 13:55:43;;;;;;;4.70;4.20;;;;;;;25.64;39.24;98828.54;233319;1204;22460;-74
2021/09/09 14:00:46;;;;;;;5.40;4.10;;;;;;;25.66;38.86;98826.11;233330;1204;24058;-74
2021/09/09 14:05:49;;;;;;;4.60;4.10;;;;;;;25.62;38.51;98824.53;235284;1205;24013;-74
2021/09/09 14:10:51;;;;;;;4.70;3.90;;;;;;;25.58;38.68;98822.58;233729;1205;27282;-74
2021/09/09 14:15:56;;;;;;;4.00;3.50;;;;;;;25.59;38.93;98820.14;233630;1205;24233;-75
2021/09/09 14:21:00;;;;;;;5.80;4.00;;;;;;;25.59;38.93;98815.36;233193;1206;26538;-73
2021/09/09 14:26:04;;;;;;;4.80;3.80;;;;;;;25.56;38.40;98818.10;232589;1199;22447;-74
2021/09/09 14:31:10;;;;;;;4.50;3.80;;;;;;;25.50;37.89;98809.79;233283;1205;23669;-74
2021/09/09 14:36:17;;;;;;;5.90;3.80;;;;;;;25.43;38.23;98814.45;233033;1204;22537;-74
2021/09/09 14:41:22;;;;;;;6.20;3.70;;;;;;;25.38;38.39;98805.98;232743;1204;24079;-74
2021/09/09 14:46:25;;;;;;;5.20;3.70;;;;;;;25.34;38.56;98804.87;232891;1204;25819;-73
2021/09/09 14:51:41;;;;;;;4.60;4.10;;;;;;;25.29;38.01;98799.51;232568;1206;25219;-74
2021/09/09 14:57:04;;;;;;;3.40;3.10;;;;;;;25.19;36.82;98793.37;232761;1204;25457;-72
2021/09/09 15:02:20;;;;;;;5.20;3.70;;;;;;;25.07;36.89;98792.45;232728;1206;22447;-74
2021/09/09 15:07:41;;;;;;;4.10;3.20;;;;;;;25.00;37.27;98787.89;232827;1204;24162;-75
2021/09/09 15:12:44;;;;;;;3.50;3.20;;;;;;;24.98;37.39;98790.08;232816;1204;22448;-73
2021/09/09 15:17:48;;;;;;;4.20;3.10;;;;;;;24.95;37.09;98789.20;232963;1204;25268;-74
2021/09/09 15:22:51;;;;;;;3.80;3.20;;;;;;;24.88;36.94;98783.60;232777;1204;24808;-75
2021/09/09 15:27:54;;;;;;;3.20;2.90;;;;;;;24.83;37.60;98781.39;232796;1204;24075;-76
2021/09/09 15:32:57;;;;;;;5.60;3.60;;;;;;;24.79;37.78;98780.36;232587;1205;22491;-74
2021/09/09 15:37:59;;;;;;;5.20;3.90;;;;;;;24.73;37.93;98780.56;233059;1206;24627;-73
2021/09/09 15:43:02;;;;;;;4.20;3.60;;;;;;;24.63;38.11;98776.52;232799;1204;22572;-76
2021/09/09 15:48:05;;;;;;;6.80;3.40;;;;;;;24.52;38.60;98782.98;232754;1206;22477;-78
2021/09/09 15:53:08;;;;;;;5.20;3.60;;;;;;;24.38;38.71;98781.58;232604;1204;25266;-72
2021/09/09 15:58:30;;;;;;;4.30;3.20;;;;;;;24.22;38.93;98777.95;232687;1204;24028;-74
2021/09/09 16:03:33;;;;;;;6.30;2.90;;;;;;;24.06;39.28;98776.81;232685;1198;24197;-75
2021/09/09 16:08:37;;;;;;;3.40;2.80;;;;;;;23.87;39.54;98773.21;232878;1205;25297;-75
2021/09/09 16:13:39;;;;;;;5.20;4.10;;;;;;;23.63;40.03;98762.83;232709;1199;25121;-75
2021/09/09 16:18:51;;;;;;;4.30;3.50;;;;;;;23.37;40.77;98755.31;232834;1204;22458;-75
2021/09/09 16:23:54;;;;;;;4.10;3.60;;;;;;;23.12;41.22;98759.23;232782;1196;24773;-75
2021/09/09 16:28:56;;;;;;;6.00;4.00;;;;;;;22.88;41.38;98753.56;232997;1204;22582;-72
2021/09/09 16:34:01;;;;;;;5.10;3.70;;;;;;;22.64;42.05;98747.88;232991;1204;22480;-74
2021/09/09 16:39:04;;;;;;;6.40;4.50;;;;;;;22.41;42.38;98745.59;232622;1204;24873;-74
2021/09/09 16:44:09;;;;;;;5.60;3.90;;;;;;;22.16;42.69;98747.79;232816;1204;24211;-76
2021/09/09 16:49:12;;;;;;;5.50;3.20;;;;;;;21.89;42.96;98739.73;233068;1204;24116;-74
2021/09/09 16:54:14;;;;;;;8.30;5.70;;;;;;;21.60;43.23;98730.98;232653;1204;24085;-74
2021/09/09 16:59:17;;;;;;;5.30;3.20;;;;;;;21.33;43.42;98734.30;232677;1204;22654;-74
2021/09/09 17:04:20;;;;;;;8.10;3.30;;;;;;;21.06;43.73;98731.48;232690;1200;24015;-74
2021/09/09 17:09:22;;;;;;;5.50;3.50;;;;;;;20.79;44.28;98728.70;232796;1204;24014;-74
2021/09/09 17:14:25;;;;;;;7.60;4.30;;;;;;;20.51;45.02;98731.27;232703;1204;24090;-74
2021/09/09 17:19:27;;;;;;;5.60;3.90;;;;;;;20.20;45.78;98732.06;232940;1204;25155;-74
2021/09/09 17:24:30;;;;;;;6.50;4.10;;;;;;;19.91;46.40;98739.16;233056;1204;24153;-73
2021/09/09 17:29:33;;;;;;;7.70;4.10;;;;;;;19.60;47.06;98743.73;232932;1204;24151;-72
2021/09/09 17:34:36;;;;;;;6.10;4.30;;;;;;;19.31;47.83;98751.41;233306;1204;24064;-73
2021/09/09 17:39:38;;;;;;;6.10;3.60;;;;;;;19.03;48.30;98754.02;232892;1207;24233;-74
2021/09/09 17:44:43;;;;;;;8.90;5.40;;;;;;;18.78;48.74;98756.21;232791;1201;22458;-73
2021/09/09 17:49:46;;;;;;;5.20;4.50;;;;;;;18.55;49.29;98762.20;232866;1204;22458;-72
2021/09/09 17:54:52;;;;;;;8.30;4.40;;;;;;;18.33;49.71;98765.48;232777;1205;24209;-73
2021/09/09 17:59:58;;;;;;;7.60;4.60;;;;;;;18.12;50.16;98765.77;232950;1205;22479;-74
2021/09/09 18:05:03;;;;;;;8.60;6.20;;;;;;;17.93;50.75;98769.58;233090;1199;26153;-75
2021/09/09 18:10:06;;;;;;;13.20;6.50;;;;;;;17.75;51.22;98771.98;233138;1204;22525;-72
2021/09/09 18:15:11;;;;;;;9.50;5.60;;;;;;;17.58;51.50;98777.91;232845;1204;24566;-74
2021/09/09 18:20:14;;;;;;;9.90;5.80;;;;;;;17.41;51.95;98777.41;232922;1204;24084;-75
2021/09/09 18:25:17;;;;;;;8.50;5.60;;;;;;;17.25;52.28;98786.44;232825;1204;24119;-75
2021/09/09 18:30:20;;;;;;;8.60;6.20;;;;;;;17.11;52.49;98790.91;232773;1205;25207;-74
2021/09/09 18:35:23;;;;;;;10.20;6.30;;;;;;;17.00;52.61;98790.27;232983;1204;22493;-72
2021/09/09 18:40:39;;;;;;;10.30;6.10;;;;;;;16.88;52.96;98794.63;233175;1204;24068;-74
2021/09/09 18:46:02;;;;;;;13.20;7.30;;;;;;;16.77;53.38;98796.10;233288;1205;22480;-75
2021/09/09 18:51:05;;;;;;;11.30;7.60;;;;;;;16.67;53.88;98801.31;233241;1204;24252;-74
2021/09/09 18:56:07;;;;;;;11.50;7.10;;;;;;;16.56;54.17;98805.77;233139;1205;25045;-73
2021/09/09 19:01:10;;;;;;;14.80;8.90;;;;;;;16.48;54.43;98811.39;233282;1204;22464;-75
2021/09/09 19:06:16;;;;;;;14.60;8.30;;;;;;;16.38;54.91;98808.86;232992;1204;24192;-75
2021/09/09 19:11:19;;;;;;;11.50;7.50;;;;;;;16.31;55.17;98810.20;233148;1204;24094;-75
2021/09/09 19:16:22;;;;;;;14.70;8.10;;;;;;;16.27;55.58;98811.20;233279;1204;22569;-74
2021/09/09 19:21:27;;;;;;;16.00;9.00;;;;;;;16.24;55.75;98814.86;233229;1204;25173;-74
2021/09/09 19:26:30;;;;;;;12.50;8.80;;;;;;;16.19;55.89;98817.91;232593;1204;24211;-75
2021/09/09 19:31:32;;;;;;;12.00;7.10;;;;;;;16.12;55.98;98822.77;232774;1204;24113;-75
2021/09/09 19:36:35;;;;;;;16.50;10.20;;;;;;;16.02;55.91;98821.66;233139;1206;22505;-75
2021/09/09 19:41:39;;;;;;;14.10;7.90;;;;;;;15.91;55.98;98817.66;233125;1205;22452;-75
2021/09/09 19:46:43;;;;;;;15.00;7.40;;;;;;;15.81;56.04;98824.13;233070;1205;24144;-73
2021/09/09 19:51:47;;;;;;;11.10;6.70;;;;;;;15.70;56.12;98823.83;232735;1205;24208;-74
2021/09/09 19:56:49;;;;;;;12.80;6.80;;;;;;;15.61;56.37;98824.21;232604;1205;24094;-74
2021/09/09 20:01:53;;;;;;;9.60;6.60;;;;;;;15.52;56.45;98822.58;232705;1212;23417;-74
2021/09/09 20:06:56;;;;;;;11.90;6.90;;;;;;;15.42;56.70;98824.14;232701;1205;25448;-74
2021/09/09 20:12:00;;;;;;;12.80;7.70;;;;;;;15.34;57.05;98820.98;232720;1204;24071;-75
2021/09/09 20:17:04;;;;;;;11.80;7.70;;;;;;;15.30;57.36;98818.64;232992;1205;22500;-75
2021/09/09 20:22:06;;;;;;;10.50;6.80;;;;;;;15.27;57.61;98825.19;232819;1205;24125;-75
2021/09/09 20:27:09;;;;;;;13.70;7.30;;;;;;;15.23;57.79;98824.48;233027;1203;24246;-75
2021/09/09 20:32:12;;;;;;;12.30;8.00;;;;;;;15.17;57.87;98820.48;232939;1205;25256;-74
2021/09/09 20:37:14;;;;;;;14.10;8.60;;;;;;;15.11;57.86;98819.23;232884;1203;24083;-75
2021/09/09 20:42:17;;;;;;;16.10;11.10;;;;;;;15.03;58.06;98820.75;233033;1205;24170;-75
2021/09/09 20:47:33;;;;;;;15.70;8.90;;;;;;;14.93;58.38;98819.22;233005;1205;25208;-73
2021/09/09 20:52:53;;;;;;;12.50;8.50;;;;;;;14.80;58.73;98824.41;232735;1209;25216;-75
2021/09/09 20:57:56;;;;;;;12.40;8.50;;;;;;;14.67;59.42;98826.45;232832;1205;25213;-74
2021/09/09 21:02:59;;;;;;;12.80;8.00;;;;;;;14.54;59.99;98827.73;232970;1208;24078;-73
2021/09/09 21:08:03;;;;;;;14.60;8.50;;;;;;;14.41;60.46;98827.84;232636;1208;25217;-75
2021/09/09 21:13:07;;;;;;;13.00;7.70;;;;;;;14.30;60.82;98824.45;232883;1203;25047;-74
2021/09/09 21:18:11;;;;;;;11.20;7.70;;;;;;;14.20;61.26;98826.37;232953;1209;25141;-75
2021/09/09 21:23:13;;;;;;;13.10;7.90;;;;;;;14.14;61.69;98822.92;232853;1209;24121;-72
2021/09/09 21:28:19;;;;;;;13.00;8.40;;;;;;;14.10;62.03;98823.41;232969;1198;25163;-74
2021/09/09 21:33:23;;;;;;;12.80;8.80;;;;;;;14.05;62.15;98827.16;232779;1205;24063;-75
2021/09/09 21:38:25;;;;;;;15.10;9.00;;;;;;;13.98;62.22;98831.53;232845;1205;22476;-74
2021/09/09 21:43:28;;;;;;;14.10;8.30;;;;;;;13.91;62.61;98826.23;232586;1205;24143;-74
2021/09/09 21:48:32;;;;;;;16.80;12.30;;;;;;;13.85;62.95;98825.63;232497;1208;24069;-73
2021/09/09 21:53:34;;;;;;;20.90;13.10;;;;;;;13.75;63.35;98829.31;233124;1205;24064;-74
2021/09/09 21:58:37;;;;;;;21.10;13.00;;;;;;;13.63;63.60;98830.10;233036;1206;22461;-74
2021/09/09 22:03:40;;;;;;;18.90;11.20;;;;;;;13.49;63.83;98825.31;232579;1205;24073;-72
2021/09/09 22:08:43;;;;;;;14.90;9.50;;;;;;;13.34;63.94;98825.54;232900;1205;25215;-74
2021/09/09 22:13:46;;;;;;;16.10;9.90;;;;;;;13.24;64.39;98827.55;232773;1203;22490;-74
2021/09/09 22:18:50;;;;;;;16.60;10.60;;;;;;;13.16;64.62;98832.12;233046;1209;22462;-75
2021/09/09 22:23:53;;;;;;;17.10;10.20;;;;;;;13.08;64.76;98838.14;232868;1205;22509;-74
2021/09/09 22:28:56;;;;;;;15.20;9.30;;;;;;;13.00;64.74;98832.71;232513;1209;25231;-72
2021/09/09 22:33:58;;;;;;;12.30;8.40;;;;;;;12.92;64.89;98831.00;232552;1205;24047;-75
2021/09/09 22:39:09;;;;;;;14.30;8.10;;;;;;;12.89;65.12;98828.39;232874;1204;22463;-75
2021/09/09 22:44:24;;;;;;;13.50;7.40;;;;;;;12.89;65.14;98829.66;232982;1199;22466;-74
2021/09/09 22:49:26;;;;;;;9.20;6.30;;;;;;;12.89;65.05;98831.23;233098;1205;24104;-74
2021/09/09 22:54:29;;;;;;;10.10;5.20;;;;;;;12.90;65.04;98827.49;233111;1205;24126;-72
2021/09/09 22:59:32;;;;;;;8.80;5.30;;;;;;;12.93;65.10;98825.55;233027;1205;24218;-72
2021/09/09 23:04:34;;;;;;;9.50;6.00;;;;;;;12.99;65.01;98819.13;232506;1202;24200;-75
2021/09/09 23:09:36;;;;;;;8.80;6.00;;;;;;;13.03;65.07;98818.45;232614;1207;24006;-75
2021/09/09 23:14:41;;;;;;;11.80;7.10;;;;;;;13.05;65.10;98819.09;232871;1205;24064;-76
2021/09/09 23:19:44;;;;;;;8.30;6.30;;;;;;;13.04;65.11;98817.63;233004;1210;24074;-74
2021/09/09 23:24:47;;;;;;;10.80;6.10;;;;;;;13.03;65.14;98826.35;232722;1205;24081;-73
2021/09/09 23:29:49;;;;;;;9.90;6.60;;;;;;;13.03;65.34;98821.60;232523;1206;26215;-74